createdAt,value
2017-03-27T00:00:03.814Z,3.99
2017-03-27T00:00:08.010Z,3.99
2017-03-27T00:00:12.463Z,3.93
2017-03-27T00:00:16.892Z,3.96
2017-03-27T00:00:21.083Z,3.95
2017-03-27T00:00:25.395Z,3.92
2017-03-27T00:00:29.741Z,3.95
2017-03-27T00:00:34.052Z,3.93
2017-03-27T00:00:38.489Z,3.95
2017-03-27T00:00:42.800Z,3.92
2017-03-27T00:00:47.114Z,3.95
2017-03-27T00:00:51.555Z,3.96
2017-03-27T00:00:55.901Z,3.93
2017-03-27T00:01:00.207Z,3.92
2017-03-27T00:01:04.635Z,3.98
2017-03-27T00:01:08.950Z,3.95
2017-03-27T00:01:13.376Z,3.89
2017-03-27T00:01:17.811Z,3.95
2017-03-27T00:01:22.298Z,3.98
2017-03-27T00:01:26.623Z,3.98
2017-03-27T00:01:30.971Z,4
2017-03-27T00:01:35.047Z,3.99
2017-03-27T00:01:39.248Z,3.98
2017-03-27T00:01:43.692Z,3.95
2017-03-27T00:01:48.009Z,3.98
2017-03-27T00:01:52.447Z,3.96
2017-03-27T00:01:56.773Z,3.98
2017-03-27T00:02:01.206Z,3.96
2017-03-27T00:02:05.648Z,3.98
2017-03-27T00:02:09.963Z,3.98
2017-03-27T00:02:14.398Z,3.93
2017-03-27T00:02:18.724Z,3.93
2017-03-27T00:02:23.159Z,3.96
2017-03-27T00:02:27.350Z,3.95
2017-03-27T00:02:31.785Z,3.92
2017-03-27T00:02:35.986Z,3.93
2017-03-27T00:02:40.088Z,3.98
2017-03-27T00:02:44.517Z,3.95
2017-03-27T00:02:48.719Z,3.93
2017-03-27T00:02:53.165Z,3.96
2017-03-27T00:02:57.382Z,3.92
2017-03-27T00:03:01.818Z,3.93
2017-03-27T00:03:06.034Z,3.95
2017-03-27T00:03:10.471Z,3.93
2017-03-27T00:03:14.835Z,3.92
2017-03-27T00:03:19.161Z,3.96
2017-03-27T00:03:23.371Z,3.93
2017-03-27T00:03:27.826Z,3.98
2017-03-27T00:03:32.039Z,3.96
2017-03-27T00:03:36.363Z,3.98
2017-03-27T00:03:40.692Z,3.98
2017-03-27T00:03:45.021Z,3.98
2017-03-27T00:03:49.347Z,3.92
2017-03-27T00:03:53.697Z,3.98
2017-03-27T00:03:58.039Z,3.92
2017-03-27T00:04:02.249Z,3.95
2017-03-27T00:04:06.681Z,3.93
2017-03-27T00:04:11.127Z,3.96
2017-03-27T00:04:15.560Z,3.99
2017-03-27T00:04:19.998Z,3.98
2017-03-27T00:04:24.432Z,3.95
2017-03-27T00:04:28.898Z,3.96
2017-03-27T00:04:33.339Z,3.86
2017-03-27T00:04:37.782Z,3.92
2017-03-27T00:04:42.097Z,3.95
2017-03-27T00:04:46.408Z,3.95
2017-03-27T00:04:50.854Z,3.95
2017-03-27T00:04:55.295Z,3.98
2017-03-27T00:04:59.754Z,3.95
2017-03-27T00:05:04.486Z,3.96
2017-03-27T00:05:08.919Z,3.99
2017-03-27T00:05:13.349Z,3.92
2017-03-27T00:05:17.813Z,3.92
2017-03-27T00:05:22.247Z,3.93
2017-03-27T00:05:26.682Z,3.93
2017-03-27T00:05:31.012Z,3.95
2017-03-27T00:05:35.324Z,3.99
2017-03-27T00:05:39.656Z,3.96
2017-03-27T00:05:43.974Z,3.95
2017-03-27T00:05:48.295Z,3.95
2017-03-27T00:05:52.491Z,3.96
2017-03-27T00:05:56.683Z,3.92
2017-03-27T00:06:01.137Z,3.95
2017-03-27T00:06:05.673Z,3.95
2017-03-27T00:06:09.757Z,3.95
2017-03-27T00:06:13.961Z,3.96
2017-03-27T00:06:18.291Z,3.92
2017-03-27T00:06:22.753Z,3.95
2017-03-27T00:06:27.063Z,3.96
2017-03-27T00:06:31.380Z,3.96
2017-03-27T00:06:35.820Z,4
2017-03-27T00:06:40.267Z,3.89
2017-03-27T00:06:44.709Z,3.96
2017-03-27T00:06:49.020Z,3.98
2017-03-27T00:06:53.224Z,3.9
2017-03-27T00:06:57.426Z,3.98
2017-03-27T00:07:01.737Z,3.95
2017-03-27T00:07:06.165Z,3.92
2017-03-27T00:07:10.613Z,3.93
2017-03-27T00:07:14.834Z,3.99
2017-03-27T00:07:19.158Z,3.99
2017-03-27T00:07:23.358Z,3.95
2017-03-27T00:07:27.444Z,3.96
2017-03-27T00:07:31.794Z,3.96
2017-03-27T00:07:36.002Z,3.99
2017-03-27T00:07:40.214Z,3.96
2017-03-27T00:07:44.551Z,3.93
2017-03-27T00:07:48.880Z,4
2017-03-27T00:07:53.222Z,3.96
2017-03-27T00:07:57.190Z,3.96
2017-03-27T00:08:01.862Z,4
2017-03-27T00:08:06.189Z,3.9
2017-03-27T00:08:10.622Z,4
2017-03-27T00:08:15.066Z,3.98
2017-03-27T00:08:19.401Z,3.96
2017-03-27T00:08:23.765Z,3.96
2017-03-27T00:08:27.970Z,3.96
2017-03-27T00:08:32.410Z,4.02
2017-03-27T00:08:36.736Z,3.98
2017-03-27T00:08:41.071Z,4.02
2017-03-27T00:08:45.506Z,3.95
2017-03-27T00:08:49.733Z,3.96
2017-03-27T00:08:53.936Z,3.96
2017-03-27T00:08:58.155Z,3.95
2017-03-27T00:09:02.488Z,3.96
2017-03-27T00:09:06.919Z,4.02
2017-03-27T00:09:11.398Z,4
2017-03-27T00:09:15.836Z,3.98
2017-03-27T00:09:20.274Z,4
2017-03-27T00:09:24.716Z,3.92
2017-03-27T00:09:29.078Z,3.99
2017-03-27T00:09:33.279Z,3.96
2017-03-27T00:09:37.486Z,3.96
2017-03-27T00:09:41.933Z,3.99
2017-03-27T00:09:46.173Z,3.92
2017-03-27T00:09:50.494Z,4
2017-03-27T00:09:54.833Z,3.99
2017-03-27T00:09:59.283Z,3.95
2017-03-27T00:10:03.725Z,3.96
2017-03-27T00:10:07.697Z,3.98
2017-03-27T00:10:12.132Z,3.95
2017-03-27T00:10:16.346Z,3.95
2017-03-27T00:10:20.777Z,3.99
2017-03-27T00:10:25.218Z,3.9
2017-03-27T00:10:29.545Z,3.99
2017-03-27T00:10:33.864Z,3.95
2017-03-27T00:10:38.059Z,3.98
2017-03-27T00:10:42.154Z,3.95
2017-03-27T00:10:46.620Z,3.99
2017-03-27T00:10:50.949Z,3.93
2017-03-27T00:10:55.158Z,3.98
2017-03-27T00:10:59.360Z,3.95
2017-03-27T00:11:03.709Z,3.98
2017-03-27T00:11:08.184Z,3.93
2017-03-27T00:11:12.494Z,3.89
2017-03-27T00:11:16.927Z,3.99
2017-03-27T00:11:21.133Z,3.98
2017-03-27T00:11:25.445Z,3.96
2017-03-27T00:11:29.754Z,3.96
2017-03-27T00:11:34.192Z,3.96
2017-03-27T00:11:38.628Z,3.98
2017-03-27T00:11:43.050Z,4
2017-03-27T00:11:47.488Z,3.96
2017-03-27T00:11:51.802Z,3.98
2017-03-27T00:11:56.114Z,3.96
2017-03-27T00:12:00.433Z,3.86
2017-03-27T00:12:04.744Z,3.92
2017-03-27T00:12:09.185Z,3.96
2017-03-27T00:12:13.381Z,3.95
2017-03-27T00:12:17.700Z,3.96
2017-03-27T00:12:22.138Z,3.93
2017-03-27T00:12:26.448Z,3.96
2017-03-27T00:12:30.788Z,3.95
2017-03-27T00:12:35.216Z,3.92
2017-03-27T00:12:39.656Z,3.98
2017-03-27T00:12:44.086Z,3.9
2017-03-27T00:12:48.541Z,3.95
2017-03-27T00:12:52.974Z,3.93
2017-03-27T00:12:57.188Z,3.93
2017-03-27T00:13:01.504Z,3.88
2017-03-27T00:13:05.946Z,3.96
2017-03-27T00:13:10.386Z,3.88
2017-03-27T00:13:14.702Z,3.92
2017-03-27T00:13:19.141Z,3.92
2017-03-27T00:13:23.582Z,3.95
2017-03-27T00:13:28.029Z,3.9
2017-03-27T00:13:32.345Z,3.89
2017-03-27T00:13:36.562Z,3.92
2017-03-27T00:13:40.876Z,3.92
2017-03-27T00:13:45.356Z,3.96
2017-03-27T00:13:49.792Z,3.93
2017-03-27T00:13:54.115Z,3.86
2017-03-27T00:13:58.445Z,3.92
2017-03-27T00:14:02.877Z,3.9
2017-03-27T00:14:07.203Z,3.9
2017-03-27T00:14:11.652Z,3.89
2017-03-27T00:14:16.137Z,3.96
2017-03-27T00:14:20.345Z,3.88
2017-03-27T00:14:24.837Z,3.92
2017-03-27T00:14:29.167Z,3.86
2017-03-27T00:14:33.487Z,3.93
2017-03-27T00:14:37.923Z,3.93
2017-03-27T00:14:42.358Z,3.89
2017-03-27T00:14:46.791Z,3.9
2017-03-27T00:14:51.219Z,3.92
2017-03-27T00:14:55.541Z,3.88
2017-03-27T00:15:00.007Z,3.88
2017-03-27T00:15:04.203Z,3.86
2017-03-27T00:15:08.524Z,3.89
2017-03-27T00:15:12.974Z,3.89
2017-03-27T00:15:17.305Z,3.88
2017-03-27T00:15:21.624Z,3.93
2017-03-27T00:15:26.058Z,3.88
2017-03-27T00:15:30.490Z,3.95
2017-03-27T00:15:34.805Z,3.98
2017-03-27T00:15:39.141Z,3.89
2017-03-27T00:15:43.591Z,3.89
2017-03-27T00:15:48.050Z,3.89
2017-03-27T00:15:52.365Z,3.96
2017-03-27T00:15:56.811Z,3.88
2017-03-27T00:16:01.037Z,3.95
2017-03-27T00:16:05.356Z,3.88
2017-03-27T00:16:09.789Z,3.92
2017-03-27T00:16:14.109Z,3.92
2017-03-27T00:16:18.544Z,3.86
2017-03-27T00:16:22.856Z,3.82
2017-03-27T00:16:27.300Z,3.9
2017-03-27T00:16:31.496Z,3.84
2017-03-27T00:16:35.936Z,3.88
2017-03-27T00:16:40.145Z,3.9
2017-03-27T00:16:44.618Z,3.89
2017-03-27T00:16:49.050Z,3.89
2017-03-27T00:16:53.359Z,3.92
2017-03-27T00:16:57.588Z,3.96
2017-03-27T00:17:01.545Z,3.92
2017-03-27T00:17:06.081Z,3.84
2017-03-27T00:17:10.397Z,3.88
2017-03-27T00:17:14.838Z,3.88
2017-03-27T00:17:19.276Z,3.92
2017-03-27T00:17:23.715Z,3.89
2017-03-27T00:17:28.042Z,3.92
2017-03-27T00:17:32.480Z,3.89
2017-03-27T00:17:36.924Z,3.88
2017-03-27T00:17:41.363Z,3.8
2017-03-27T00:17:45.865Z,3.89
2017-03-27T00:17:50.305Z,3.89
2017-03-27T00:17:54.644Z,3.89
2017-03-27T00:17:59.094Z,3.82
2017-03-27T00:18:03.473Z,3.81
2017-03-27T00:18:07.789Z,3.82
2017-03-27T00:18:12.224Z,3.86
2017-03-27T00:18:16.545Z,3.81
2017-03-27T00:18:20.986Z,3.9
2017-03-27T00:18:25.440Z,3.89
2017-03-27T00:18:29.881Z,3.86
2017-03-27T00:18:34.205Z,3.75
2017-03-27T00:18:38.531Z,3.82
2017-03-27T00:18:42.968Z,3.84
2017-03-27T00:18:47.404Z,3.8
2017-03-27T00:18:51.858Z,3.82
2017-03-27T00:18:56.060Z,3.82
2017-03-27T00:19:00.505Z,3.8
2017-03-27T00:19:04.967Z,3.86
2017-03-27T00:19:09.313Z,3.81
2017-03-27T00:19:13.641Z,3.75
2017-03-27T00:19:18.090Z,3.82
2017-03-27T00:19:22.556Z,3.81
2017-03-27T00:19:26.901Z,3.81
2017-03-27T00:19:31.209Z,3.84
2017-03-27T00:19:35.409Z,3.75
2017-03-27T00:19:39.844Z,3.84
2017-03-27T00:19:44.282Z,3.81
2017-03-27T00:19:48.712Z,3.77
2017-03-27T00:19:53.042Z,3.8
2017-03-27T00:19:57.482Z,3.78
2017-03-27T00:20:01.914Z,3.77
2017-03-27T00:20:06.335Z,3.75
2017-03-27T00:20:10.647Z,3.81
2017-03-27T00:20:15.075Z,3.86
2017-03-27T00:20:19.504Z,3.8
2017-03-27T00:20:23.935Z,3.8
2017-03-27T00:20:28.358Z,3.78
2017-03-27T00:20:32.796Z,3.77
2017-03-27T00:20:37.222Z,3.78
2017-03-27T00:20:41.538Z,3.75
2017-03-27T00:20:45.623Z,3.78
2017-03-27T00:20:50.066Z,3.84
2017-03-27T00:20:54.500Z,3.78
2017-03-27T00:20:58.936Z,3.77
2017-03-27T00:21:03.545Z,3.75
2017-03-27T00:21:07.982Z,3.78
2017-03-27T00:21:12.405Z,3.86
2017-03-27T00:21:16.838Z,3.8
2017-03-27T00:21:21.313Z,3.75
2017-03-27T00:21:25.747Z,3.74
2017-03-27T00:21:30.061Z,3.81
2017-03-27T00:21:34.501Z,3.77
2017-03-27T00:21:38.929Z,3.81
2017-03-27T00:21:43.248Z,3.67
2017-03-27T00:21:47.604Z,3.82
2017-03-27T00:21:51.915Z,3.82
2017-03-27T00:21:56.347Z,3.78
2017-03-27T00:22:00.670Z,3.78
2017-03-27T00:22:04.980Z,3.74
2017-03-27T00:22:09.295Z,3.78
2017-03-27T00:22:13.727Z,3.78
2017-03-27T00:22:18.046Z,3.82
2017-03-27T00:22:22.488Z,3.75
2017-03-27T00:22:26.919Z,3.81
2017-03-27T00:22:31.414Z,3.78
2017-03-27T00:22:35.899Z,3.81
2017-03-27T00:22:40.174Z,3.77
2017-03-27T00:22:44.378Z,3.75
2017-03-27T00:22:48.815Z,3.77
2017-03-27T00:22:53.134Z,3.75
2017-03-27T00:22:57.450Z,3.86
2017-03-27T00:23:01.892Z,3.8
2017-03-27T00:23:06.339Z,3.8
2017-03-27T00:23:10.782Z,3.74
2017-03-27T00:23:15.229Z,3.82
2017-03-27T00:23:19.669Z,3.71
2017-03-27T00:23:24.116Z,3.71
2017-03-27T00:23:28.595Z,3.72
2017-03-27T00:23:32.931Z,3.74
2017-03-27T00:23:37.168Z,3.75
2017-03-27T00:23:41.495Z,3.78
2017-03-27T00:23:45.820Z,3.74
2017-03-27T00:23:50.258Z,3.7
2017-03-27T00:23:54.713Z,3.77
2017-03-27T00:23:59.155Z,3.75
2017-03-27T00:24:03.646Z,3.67
2017-03-27T00:24:08.100Z,3.74
2017-03-27T00:24:12.327Z,3.72
2017-03-27T00:24:16.544Z,3.74
2017-03-27T00:24:20.993Z,3.71
2017-03-27T00:24:25.324Z,3.71
2017-03-27T00:24:29.786Z,3.7
2017-03-27T00:24:33.995Z,3.82
2017-03-27T00:24:38.304Z,3.71
2017-03-27T00:24:42.737Z,3.74
2017-03-27T00:24:47.176Z,3.72
2017-03-27T00:24:51.601Z,3.7
2017-03-27T00:24:55.919Z,3.68
2017-03-27T00:25:00.357Z,3.68
2017-03-27T00:25:04.675Z,3.71
2017-03-27T00:25:09.117Z,3.7
2017-03-27T00:25:13.550Z,3.68
2017-03-27T00:25:17.752Z,3.67
2017-03-27T00:25:22.098Z,3.7
2017-03-27T00:25:26.434Z,3.7
2017-03-27T00:25:30.744Z,3.81
2017-03-27T00:25:35.173Z,3.68
2017-03-27T00:25:39.604Z,3.75
2017-03-27T00:25:44.041Z,3.7
2017-03-27T00:25:48.469Z,3.62
2017-03-27T00:25:52.897Z,3.71
2017-03-27T00:25:57.336Z,3.68
2017-03-27T00:26:01.677Z,3.68
2017-03-27T00:26:06.100Z,3.7
2017-03-27T00:26:10.307Z,3.7
2017-03-27T00:26:14.507Z,3.59
2017-03-27T00:26:18.953Z,3.7
2017-03-27T00:26:23.377Z,3.63
2017-03-27T00:26:27.682Z,3.74
2017-03-27T00:26:32.006Z,3.71
2017-03-27T00:26:36.331Z,3.75
2017-03-27T00:26:40.769Z,3.7
2017-03-27T00:26:45.084Z,3.72
2017-03-27T00:26:49.401Z,3.71
2017-03-27T00:26:53.836Z,3.68
2017-03-27T00:26:58.271Z,3.7
2017-03-27T00:27:02.701Z,3.7
2017-03-27T00:27:07.143Z,3.77
2017-03-27T00:27:11.572Z,3.71
2017-03-27T00:27:16.011Z,3.72
2017-03-27T00:27:20.325Z,3.7
2017-03-27T00:27:24.776Z,3.64
2017-03-27T00:27:29.090Z,3.72
2017-03-27T00:27:33.516Z,3.62
2017-03-27T00:27:37.947Z,3.68
2017-03-27T00:27:42.399Z,3.72
2017-03-27T00:27:46.732Z,3.63
2017-03-27T00:27:51.051Z,3.68
2017-03-27T00:27:55.489Z,3.7
2017-03-27T00:27:59.823Z,3.71
2017-03-27T00:28:04.399Z,3.67
2017-03-27T00:28:08.477Z,3.64
2017-03-27T00:28:12.907Z,3.7
2017-03-27T00:28:17.352Z,3.7
2017-03-27T00:28:21.790Z,3.71
2017-03-27T00:28:26.227Z,3.71
2017-03-27T00:28:30.549Z,3.7
2017-03-27T00:28:34.862Z,3.72
2017-03-27T00:28:39.310Z,3.71
2017-03-27T00:28:43.397Z,3.7
2017-03-27T00:28:47.839Z,3.71
2017-03-27T00:28:52.033Z,3.7
2017-03-27T00:28:56.355Z,3.67
2017-03-27T00:29:00.790Z,3.7
2017-03-27T00:29:05.211Z,3.68
2017-03-27T00:29:09.640Z,3.71
2017-03-27T00:29:14.081Z,3.7
2017-03-27T00:29:18.398Z,3.68
2017-03-27T00:29:22.713Z,3.67
2017-03-27T00:29:27.243Z,3.64
2017-03-27T00:29:31.566Z,3.7
2017-03-27T00:29:35.882Z,3.68
2017-03-27T00:29:40.196Z,3.68
2017-03-27T00:29:44.632Z,3.68
2017-03-27T00:29:49.064Z,3.63
2017-03-27T00:29:53.424Z,3.72
2017-03-27T00:29:57.744Z,3.68
2017-03-27T00:30:02.179Z,3.77
2017-03-27T00:30:06.377Z,3.67
2017-03-27T00:30:10.804Z,3.67
2017-03-27T00:30:15.238Z,3.68
2017-03-27T00:30:19.554Z,3.7
2017-03-27T00:30:23.990Z,3.68
2017-03-27T00:30:28.225Z,3.63
2017-03-27T00:30:32.654Z,3.7
2017-03-27T00:30:36.848Z,3.67
2017-03-27T00:30:41.281Z,3.67
2017-03-27T00:30:45.708Z,3.72
2017-03-27T00:30:50.022Z,3.68
2017-03-27T00:30:54.472Z,3.7
2017-03-27T00:30:58.661Z,3.72
2017-03-27T00:31:03.321Z,3.64
2017-03-27T00:31:07.755Z,3.64
2017-03-27T00:31:12.082Z,3.71
2017-03-27T00:31:16.513Z,3.71
2017-03-27T00:31:20.722Z,3.7
2017-03-27T00:31:25.170Z,3.68
2017-03-27T00:31:29.596Z,3.7
2017-03-27T00:31:34.021Z,3.68
2017-03-27T00:31:38.335Z,3.68
2017-03-27T00:31:42.766Z,3.7
2017-03-27T00:31:47.193Z,3.7
2017-03-27T00:31:51.623Z,3.6
2017-03-27T00:31:56.074Z,3.68
2017-03-27T00:32:00.413Z,3.72
2017-03-27T00:32:04.847Z,3.68
2017-03-27T00:32:08.821Z,3.67
2017-03-27T00:32:13.150Z,3.68
2017-03-27T00:32:17.471Z,3.67
2017-03-27T00:32:21.901Z,3.67
2017-03-27T00:32:26.335Z,3.64
2017-03-27T00:32:30.675Z,3.68
2017-03-27T00:32:34.991Z,3.68
2017-03-27T00:32:39.431Z,3.68
2017-03-27T00:32:43.669Z,3.7
2017-03-27T00:32:48.008Z,3.62
2017-03-27T00:32:52.329Z,3.6
2017-03-27T00:32:56.656Z,3.62
2017-03-27T00:33:01.095Z,3.64
2017-03-27T00:33:05.343Z,3.6
2017-03-27T00:33:09.779Z,3.74
2017-03-27T00:33:14.111Z,3.6
2017-03-27T00:33:18.579Z,3.71
2017-03-27T00:33:22.899Z,3.71
2017-03-27T00:33:27.339Z,3.71
2017-03-27T00:33:31.797Z,3.71
2017-03-27T00:33:36.226Z,3.64
2017-03-27T00:33:40.674Z,3.71
2017-03-27T00:33:45.118Z,3.72
2017-03-27T00:33:49.557Z,3.7
2017-03-27T00:33:53.887Z,3.59
2017-03-27T00:33:58.213Z,3.72
2017-03-27T00:34:02.654Z,3.68
2017-03-27T00:34:06.975Z,3.68
2017-03-27T00:34:11.437Z,3.64
2017-03-27T00:34:15.758Z,3.64
2017-03-27T00:34:20.187Z,3.59
2017-03-27T00:34:24.627Z,3.7
2017-03-27T00:34:28.720Z,3.6
2017-03-27T00:34:33.181Z,3.59
2017-03-27T00:34:37.618Z,3.63
2017-03-27T00:34:41.932Z,3.57
2017-03-27T00:34:46.369Z,3.62
2017-03-27T00:34:50.687Z,3.57
2017-03-27T00:34:55.128Z,3.72
2017-03-27T00:34:59.221Z,3.62
2017-03-27T00:35:03.530Z,3.68
2017-03-27T00:35:07.986Z,3.7
2017-03-27T00:35:12.418Z,3.67
2017-03-27T00:35:16.729Z,3.64
2017-03-27T00:35:21.042Z,3.54
2017-03-27T00:35:25.475Z,3.62
2017-03-27T00:35:29.916Z,3.68
2017-03-27T00:35:34.367Z,3.67
2017-03-27T00:35:38.848Z,3.59
2017-03-27T00:35:43.283Z,3.75
2017-03-27T00:35:47.599Z,3.54
2017-03-27T00:35:51.682Z,3.64
2017-03-27T00:35:55.765Z,3.62
2017-03-27T00:36:00.189Z,3.72
2017-03-27T00:36:04.622Z,3.6
2017-03-27T00:36:08.934Z,3.67
2017-03-27T00:36:13.238Z,3.56
2017-03-27T00:36:17.555Z,3.62
2017-03-27T00:36:21.993Z,3.67
2017-03-27T00:36:26.429Z,3.64
2017-03-27T00:36:30.866Z,3.64
2017-03-27T00:36:35.297Z,3.56
2017-03-27T00:36:39.648Z,3.54
2017-03-27T00:36:43.870Z,3.72
2017-03-27T00:36:48.305Z,3.6
2017-03-27T00:36:52.757Z,3.64
2017-03-27T00:36:57.194Z,3.56
2017-03-27T00:37:01.508Z,3.64
2017-03-27T00:37:05.915Z,3.63
2017-03-27T00:37:10.380Z,3.62
2017-03-27T00:37:14.805Z,3.59
2017-03-27T00:37:19.247Z,3.62
2017-03-27T00:37:23.567Z,3.71
2017-03-27T00:37:27.889Z,3.6
2017-03-27T00:37:32.319Z,3.62
2017-03-27T00:37:36.529Z,3.54
2017-03-27T00:37:40.846Z,3.6
2017-03-27T00:37:45.283Z,3.62
2017-03-27T00:37:49.562Z,3.6
2017-03-27T00:37:53.872Z,3.6
2017-03-27T00:37:58.072Z,3.62
2017-03-27T00:38:02.720Z,3.57
2017-03-27T00:38:07.157Z,3.62
2017-03-27T00:38:11.585Z,3.64
2017-03-27T00:38:15.946Z,3.62
2017-03-27T00:38:20.281Z,3.63
2017-03-27T00:38:24.733Z,3.63
2017-03-27T00:38:29.183Z,3.63
2017-03-27T00:38:33.619Z,3.6
2017-03-27T00:38:37.934Z,3.56
2017-03-27T00:38:42.263Z,3.54
2017-03-27T00:38:46.697Z,3.63
2017-03-27T00:38:51.144Z,3.56
2017-03-27T00:38:55.580Z,3.6
2017-03-27T00:38:59.889Z,3.6
2017-03-27T00:39:04.200Z,3.62
2017-03-27T00:39:08.520Z,3.63
2017-03-27T00:39:12.841Z,3.67
2017-03-27T00:39:17.153Z,3.6
2017-03-27T00:39:21.613Z,3.68
2017-03-27T00:39:26.056Z,3.6
2017-03-27T00:39:30.487Z,3.64
2017-03-27T00:39:34.918Z,3.6
2017-03-27T00:39:39.122Z,3.63
2017-03-27T00:39:43.432Z,3.6
2017-03-27T00:39:47.869Z,3.67
2017-03-27T00:39:52.069Z,3.64
2017-03-27T00:39:56.501Z,3.67
2017-03-27T00:40:00.825Z,3.6
2017-03-27T00:40:05.020Z,3.63
2017-03-27T00:40:09.212Z,3.7
2017-03-27T00:40:13.542Z,3.6
2017-03-27T00:40:17.828Z,3.64
2017-03-27T00:40:22.025Z,3.68
2017-03-27T00:40:26.470Z,3.63
2017-03-27T00:40:30.901Z,3.62
2017-03-27T00:40:35.398Z,3.62
2017-03-27T00:40:39.737Z,3.6
2017-03-27T00:40:44.171Z,3.6
2017-03-27T00:40:48.384Z,3.6
2017-03-27T00:40:52.710Z,3.64
2017-03-27T00:40:57.036Z,3.57
2017-03-27T00:41:01.248Z,3.57
2017-03-27T00:41:05.595Z,3.59
2017-03-27T00:41:10.029Z,3.59
2017-03-27T00:41:14.351Z,3.54
2017-03-27T00:41:18.826Z,3.64
2017-03-27T00:41:23.261Z,3.62
2017-03-27T00:41:27.577Z,3.64
2017-03-27T00:41:31.804Z,3.68
2017-03-27T00:41:36.122Z,3.57
2017-03-27T00:41:40.446Z,3.59
2017-03-27T00:41:44.886Z,3.62
2017-03-27T00:41:49.333Z,3.6
2017-03-27T00:41:53.758Z,3.62
2017-03-27T00:41:58.182Z,3.62
2017-03-27T00:42:02.599Z,3.63
2017-03-27T00:42:07.033Z,3.56
2017-03-27T00:42:11.341Z,3.67
2017-03-27T00:42:15.770Z,3.6
2017-03-27T00:42:20.213Z,3.68
2017-03-27T00:42:24.527Z,3.54
2017-03-27T00:42:28.855Z,3.63
2017-03-27T00:42:33.302Z,3.62
2017-03-27T00:42:37.395Z,3.53
2017-03-27T00:42:41.834Z,3.6
2017-03-27T00:42:46.268Z,3.57
2017-03-27T00:42:50.720Z,3.62
2017-03-27T00:42:55.161Z,3.63
2017-03-27T00:42:59.505Z,3.6
2017-03-27T00:43:04.071Z,3.62
2017-03-27T00:43:08.514Z,3.68
2017-03-27T00:43:12.959Z,3.63
2017-03-27T00:43:17.400Z,3.7
2017-03-27T00:43:21.840Z,3.64
2017-03-27T00:43:26.182Z,3.59
2017-03-27T00:43:30.630Z,3.6
2017-03-27T00:43:35.076Z,3.59
2017-03-27T00:43:39.392Z,3.56
2017-03-27T00:43:43.831Z,3.64
2017-03-27T00:43:48.277Z,3.57
2017-03-27T00:43:52.725Z,3.56
2017-03-27T00:43:57.047Z,3.57
2017-03-27T00:44:01.377Z,3.64
2017-03-27T00:44:05.883Z,3.67
2017-03-27T00:44:09.970Z,3.63
2017-03-27T00:44:14.410Z,3.67
2017-03-27T00:44:18.621Z,3.64
2017-03-27T00:44:23.075Z,3.56
2017-03-27T00:44:27.697Z,3.54
2017-03-27T00:44:32.018Z,3.57
2017-03-27T00:44:36.339Z,3.6
2017-03-27T00:44:40.661Z,3.56
2017-03-27T00:44:45.100Z,3.62
2017-03-27T00:44:49.529Z,3.63
2017-03-27T00:44:53.965Z,3.59
2017-03-27T00:44:58.423Z,3.57
2017-03-27T00:45:02.944Z,3.54
2017-03-27T00:45:07.374Z,3.64
2017-03-27T00:45:11.803Z,3.56
2017-03-27T00:45:16.293Z,3.57
2017-03-27T00:45:20.610Z,3.7
2017-03-27T00:45:24.929Z,3.63
2017-03-27T00:45:29.355Z,3.57
2017-03-27T00:45:33.779Z,3.62
2017-03-27T00:45:38.212Z,3.64
2017-03-27T00:45:42.550Z,3.67
2017-03-27T00:45:46.978Z,3.64
2017-03-27T00:45:51.297Z,3.59
2017-03-27T00:45:55.735Z,3.57
2017-03-27T00:45:59.940Z,3.63
2017-03-27T00:46:04.133Z,3.62
2017-03-27T00:46:08.448Z,3.62
2017-03-27T00:46:12.906Z,3.54
2017-03-27T00:46:17.218Z,3.6
2017-03-27T00:46:21.646Z,3.64
2017-03-27T00:46:25.846Z,3.57
2017-03-27T00:46:30.291Z,3.6
2017-03-27T00:46:34.718Z,3.59
2017-03-27T00:46:39.036Z,3.59
2017-03-27T00:46:43.466Z,3.59
2017-03-27T00:46:47.907Z,3.6
2017-03-27T00:46:52.222Z,3.59
2017-03-27T00:46:56.450Z,3.63
2017-03-27T00:47:00.655Z,3.59
2017-03-27T00:47:05.150Z,3.59
2017-03-27T00:47:09.463Z,3.56
2017-03-27T00:47:13.899Z,3.64
2017-03-27T00:47:18.332Z,3.67
2017-03-27T00:47:22.767Z,3.62
2017-03-27T00:47:27.201Z,3.6
2017-03-27T00:47:31.634Z,3.63
2017-03-27T00:47:36.077Z,3.57
2017-03-27T00:47:40.513Z,3.59
2017-03-27T00:47:44.949Z,3.62
2017-03-27T00:47:49.279Z,3.57
2017-03-27T00:47:53.638Z,3.53
2017-03-27T00:47:58.074Z,3.54
2017-03-27T00:48:02.545Z,3.6
2017-03-27T00:48:06.851Z,3.56
2017-03-27T00:48:11.162Z,3.54
2017-03-27T00:48:15.481Z,3.57
2017-03-27T00:48:19.917Z,3.59
2017-03-27T00:48:24.250Z,3.52
2017-03-27T00:48:28.578Z,3.6
2017-03-27T00:48:33.035Z,3.5
2017-03-27T00:48:37.235Z,3.59
2017-03-27T00:48:41.683Z,3.53
2017-03-27T00:48:46.005Z,3.6
2017-03-27T00:48:50.460Z,3.53
2017-03-27T00:48:54.783Z,3.54
2017-03-27T00:48:59.217Z,3.62
2017-03-27T00:49:03.469Z,3.54
2017-03-27T00:49:07.903Z,3.56
2017-03-27T00:49:12.347Z,3.56
2017-03-27T00:49:16.552Z,3.53
2017-03-27T00:49:20.870Z,3.53
2017-03-27T00:49:25.183Z,3.6
2017-03-27T00:49:29.800Z,3.5
2017-03-27T00:49:34.261Z,3.57
2017-03-27T00:49:38.463Z,3.52
2017-03-27T00:49:42.772Z,3.59
2017-03-27T00:49:47.203Z,3.56
2017-03-27T00:49:51.542Z,3.57
2017-03-27T00:49:55.981Z,3.59
2017-03-27T00:50:00.300Z,3.5
2017-03-27T00:50:04.855Z,3.59
2017-03-27T00:50:09.052Z,3.59
2017-03-27T00:50:13.477Z,3.56
2017-03-27T00:50:17.903Z,3.59
2017-03-27T00:50:22.211Z,3.53
2017-03-27T00:50:26.413Z,3.5
2017-03-27T00:50:30.726Z,3.49
2017-03-27T00:50:35.150Z,3.54
2017-03-27T00:50:39.575Z,3.5
2017-03-27T00:50:44.005Z,3.59
2017-03-27T00:50:48.438Z,3.56
2017-03-27T00:50:52.509Z,3.56
2017-03-27T00:50:56.939Z,3.54
2017-03-27T00:51:01.141Z,3.46
2017-03-27T00:51:05.448Z,3.59
2017-03-27T00:51:09.884Z,3.54
2017-03-27T00:51:14.353Z,3.57
2017-03-27T00:51:18.794Z,3.54
2017-03-27T00:51:23.250Z,3.49
2017-03-27T00:51:27.559Z,3.54
2017-03-27T00:51:31.988Z,3.54
2017-03-27T00:51:36.300Z,3.45
2017-03-27T00:51:40.505Z,3.45
2017-03-27T00:51:44.816Z,3.57
2017-03-27T00:51:49.243Z,3.42
2017-03-27T00:51:53.601Z,3.49
2017-03-27T00:51:57.805Z,3.52
2017-03-27T00:52:01.883Z,3.6
2017-03-27T00:52:06.192Z,3.46
2017-03-27T00:52:10.625Z,3.54
2017-03-27T00:52:14.954Z,3.53
2017-03-27T00:52:19.264Z,3.46
2017-03-27T00:52:23.732Z,3.5
2017-03-27T00:52:28.055Z,3.49
2017-03-27T00:52:32.375Z,3.49
2017-03-27T00:52:36.572Z,3.52
2017-03-27T00:52:40.887Z,3.46
2017-03-27T00:52:45.328Z,3.46
2017-03-27T00:52:49.656Z,3.49
2017-03-27T00:52:54.088Z,3.45
2017-03-27T00:52:58.415Z,3.49
2017-03-27T00:53:02.859Z,3.5
2017-03-27T00:53:07.292Z,3.49
2017-03-27T00:53:11.730Z,3.45
2017-03-27T00:53:16.173Z,3.54
2017-03-27T00:53:20.504Z,3.52
2017-03-27T00:53:24.831Z,3.42
2017-03-27T00:53:29.278Z,3.49
2017-03-27T00:53:33.735Z,3.44
2017-03-27T00:53:38.171Z,3.49
2017-03-27T00:53:42.604Z,3.53
2017-03-27T00:53:46.817Z,3.45
2017-03-27T00:53:51.282Z,3.53
2017-03-27T00:53:55.737Z,3.44
2017-03-27T00:54:00.166Z,3.52
2017-03-27T00:54:04.483Z,3.5
2017-03-27T00:54:08.572Z,3.45
2017-03-27T00:54:12.771Z,3.49
2017-03-27T00:54:17.210Z,3.44
2017-03-27T00:54:21.648Z,3.54
2017-03-27T00:54:26.094Z,3.45
2017-03-27T00:54:30.529Z,3.56
2017-03-27T00:54:34.956Z,3.5
2017-03-27T00:54:39.156Z,3.5
2017-03-27T00:54:43.360Z,3.5
2017-03-27T00:54:47.803Z,3.45
2017-03-27T00:54:52.231Z,3.52
2017-03-27T00:54:56.560Z,3.52
2017-03-27T00:55:00.635Z,3.44
2017-03-27T00:55:04.947Z,3.52
2017-03-27T00:55:09.268Z,3.46
2017-03-27T00:55:13.586Z,3.52
2017-03-27T00:55:17.788Z,3.5
2017-03-27T00:55:22.107Z,3.52
2017-03-27T00:55:26.538Z,3.49
2017-03-27T00:55:30.977Z,3.45
2017-03-27T00:55:35.415Z,3.5
2017-03-27T00:55:39.729Z,3.45
2017-03-27T00:55:44.170Z,3.49
2017-03-27T00:55:48.482Z,3.46
2017-03-27T00:55:52.676Z,3.42
2017-03-27T00:55:57.117Z,3.56
2017-03-27T00:56:01.325Z,3.49
2017-03-27T00:56:05.642Z,3.44
2017-03-27T00:56:10.065Z,3.49
2017-03-27T00:56:14.511Z,3.46
2017-03-27T00:56:18.938Z,3.57
2017-03-27T00:56:23.283Z,3.46
2017-03-27T00:56:27.717Z,3.53
2017-03-27T00:56:32.150Z,3.44
2017-03-27T00:56:36.481Z,3.49
2017-03-27T00:56:40.913Z,3.42
2017-03-27T00:56:45.259Z,3.46
2017-03-27T00:56:49.562Z,3.42
2017-03-27T00:56:53.999Z,3.53
2017-03-27T00:56:58.452Z,3.54
2017-03-27T00:57:02.753Z,3.46
2017-03-27T00:57:07.185Z,3.46
2017-03-27T00:57:11.373Z,3.44
2017-03-27T00:57:15.809Z,3.5
2017-03-27T00:57:20.242Z,3.46
2017-03-27T00:57:24.680Z,3.49
2017-03-27T00:57:29.025Z,3.49
2017-03-27T00:57:33.468Z,3.53
2017-03-27T00:57:37.902Z,3.49
2017-03-27T00:57:42.334Z,3.46
2017-03-27T00:57:46.774Z,3.52
2017-03-27T00:57:51.207Z,3.59
2017-03-27T00:57:55.644Z,3.45
2017-03-27T00:58:00.082Z,3.49
2017-03-27T00:58:04.405Z,3.54
2017-03-27T00:58:08.878Z,3.45
2017-03-27T00:58:13.197Z,3.49
2017-03-27T00:58:17.644Z,3.46
2017-03-27T00:58:22.020Z,3.49
2017-03-27T00:58:26.493Z,3.44
2017-03-27T00:58:30.929Z,3.56